Windham Information

FAA: IJD - ICAO: KIJD

Windham (Airport) Location

State Connecticut
County Windham
City Willimantic
Windham (Airport) is 3 miles northeast of Willimantic, CT.
Latitude 41-44-38.5000N
Longitude 072-10-48.8000W
Elevation 246ft

Windham METARs

METAR KIJD 281452Z AUTO 06010KT 10SM OVC023 09/03 A3000 RMK AO2 SLP158 T00890033 51014
Altimeter 30.00"
Temperature 8.9°C (48.0°F)
Wind 60° at 10KT
Clouds overcast at 2,300ft
Visibility 10.0mi
Time observed: 2021-10-28T14:52:00Z

Windham (Airport) Details

Status Operational
Activation April 1940
Ownership Public
Usage Public
Chart NEW YORK
ATC on-site No
Beacon schedule sunset-sunrise
Beacon color clear green

Windham (Airport) Contacts

Owner CONNECTICUT AIRPORT AUTHORITY
Owner address SUITE 160, 334 ELLA GRASSO TURNPIKE, WINDSOR LOCKS, CT 06096
Owner phone 860-292-2000
Manager KIMBERLY A. KALAJAINEN
Manager address 56 FRANKLIN ST, WATERBURY, CT 06726
Manager phone (203) 709-3508

Windham Radio Frequencies

Windham (Airport) Radio Frequencies

UNICOM 122.975
Common traffic advisory frequency (CTAF) 122.975